Time;durP1;ratioP1;P1;durP2;ratioP2;P2;SDS_P1;SDS_P2;PMS_P1;PMS_P2;Temp;Humidity;BMP_temperature;BMP_pressure;BME280_temperature;BME280_humidity;BME280_pressure;Samples;Min_cycle;Max_cycle;Signal;HPM_P1;HPM_P2
2023/03/29 00:00:45;;;;;;;6.97;3.25;;;;;;;1.36;62.04;101195.91;5107864;28;20070;-74
2023/03/29 00:03:12;;;;;;;8.00;3.30;;;;;;;1.39;62.05;101208.16;5106938;28;20557;-72
2023/03/29 00:05:39;;;;;;;9.73;3.53;;;;;;;1.53;61.79;101205.88;5107976;28;20035;-73
2023/03/29 00:08:06;;;;;;;6.45;3.28;;;;;;;1.44;62.04;101214.13;5108273;28;20040;-73
2023/03/29 00:10:32;;;;;;;6.07;3.35;;;;;;;1.41;62.38;101211.59;5107864;28;20093;-73
2023/03/29 00:12:58;;;;;;;7.20;3.15;;;;;;;1.34;62.53;101186.31;5106478;28;20032;-73
2023/03/29 00:15:24;;;;;;;9.27;3.35;;;;;;;1.51;62.53;101210.34;5106254;28;20031;-73
2023/03/29 00:17:50;;;;;;;6.47;3.15;;;;;;;1.20;62.91;101183.31;5105681;28;20022;-72
2023/03/29 00:20:16;;;;;;;6.72;3.10;;;;;;;1.40;63.29;101210.75;5106468;28;20367;-73
2023/03/29 00:22:42;;;;;;;5.82;2.95;;;;;;;1.41;63.30;101220.38;5106553;28;20501;-73
2023/03/29 00:25:09;;;;;;;5.30;3.22;;;;;;;1.38;63.60;101215.22;5106073;28;20028;-73
2023/03/29 00:27:35;;;;;;;7.78;3.17;;;;;;;1.26;63.62;101215.66;5108376;28;20475;-72
2023/03/29 00:30:04;;;;;;;7.60;3.42;;;;;;;1.26;64.26;101226.22;5107824;28;20030;-73
2023/03/29 00:32:30;;;;;;;9.98;3.47;;;;;;;1.02;64.92;101195.41;5105964;28;20027;-73
2023/03/29 00:34:55;;;;;;;5.43;3.38;;;;;;;1.10;65.07;101232.09;5107317;28;20034;-73
2023/03/29 00:37:25;;;;;;;6.97;3.83;;;;;;;1.00;65.46;101206.94;5105848;28;20059;-73
2023/03/29 00:39:52;;;;;;;8.00;3.70;;;;;;;0.98;65.66;101224.59;5107924;28;20094;-73
2023/03/29 00:42:17;;;;;;;10.93;3.60;;;;;;;0.77;66.30;101197.16;5107398;28;20032;-73
2023/03/29 00:45:17;;;;;;;6.68;3.47;;;;;;;0.91;66.57;101231.88;5105937;28;20054;-73
2023/03/29 00:47:50;;;;;;;10.20;4.07;;;;;;;0.87;66.75;101226.75;5073316;28;20061;-73
2023/03/29 00:50:21;;;;;;;8.13;4.13;;;;;;;0.77;66.66;101226.19;5105569;28;20054;-73
2023/03/29 00:52:55;;;;;;;8.90;3.72;;;;;;;0.45;67.16;101184.16;5107470;28;20023;-72
2023/03/29 00:55:24;;;;;;;7.72;3.72;;;;;;;0.72;67.42;101229.91;5106267;28;20050;-73
2023/03/29 00:57:52;;;;;;;8.38;3.88;;;;;;;0.81;67.05;101233.06;5106927;28;20053;-73
2023/03/29 01:00:22;;;;;;;8.82;4.03;;;;;;;0.63;67.30;101206.44;5107084;28;20027;-72
2023/03/29 01:02:53;;;;;;;8.48;3.97;;;;;;;0.62;67.34;101204.72;5106005;28;20416;-72
2023/03/29 01:05:40;;;;;;;5.65;4.20;;;;;;;0.85;66.81;101218.88;5105509;28;20038;-72
2023/03/29 01:08:32;;;;;;;8.00;3.78;;;;;;;0.56;67.13;101183.81;5104000;28;20027;-72
2023/03/29 01:11:05;;;;;;;7.22;3.85;;;;;;;0.59;66.99;101184.59;5106726;28;20088;-72
2023/03/29 01:14:02;;;;;;;10.32;4.10;;;;;;;0.68;67.50;101193.97;5105755;28;20027;-71
2023/03/29 01:16:29;;;;;;;8.18;4.45;;;;;;;0.76;67.45;101206.00;5100783;28;20551;-72
2023/03/29 01:18:57;;;;;;;7.30;4.25;;;;;;;0.78;67.37;101201.53;5105573;28;20051;-73
2023/03/29 01:21:26;;;;;;;5.68;3.50;;;;;;;0.73;67.39;101208.72;5106060;28;20027;-72
2023/03/29 01:24:05;;;;;;;6.80;3.72;;;;;;;0.70;67.87;101189.47;5105380;28;20513;-71
2023/03/29 01:26:43;;;;;;;7.45;3.47;;;;;;;0.54;68.14;101178.59;5106327;28;20084;-72
2023/03/29 01:29:25;;;;;;;6.68;3.47;;;;;;;0.44;68.08;101171.00;5102915;28;20101;-72
2023/03/29 01:32:03;;;;;;;6.82;3.50;;;;;;;0.32;68.29;101166.16;5105012;28;20913;-72
2023/03/29 01:34:51;;;;;;;4.75;2.92;;;;;;;0.38;68.72;101173.88;5106317;28;20076;-72
2023/03/29 01:37:26;;;;;;;5.88;2.70;;;;;;;0.26;68.97;101163.72;5104671;28;20035;-72
2023/03/29 01:39:52;;;;;;;4.93;2.50;;;;;;;0.19;68.71;101155.13;5104875;28;20031;-72
2023/03/29 01:43:13;;;;;;;4.22;2.65;;;;;;;0.43;68.21;101180.72;5104246;28;20036;-72
2023/03/29 01:45:53;;;;;;;6.50;2.53;;;;;;;0.36;68.36;101179.22;5043810;28;20526;-77
2023/03/29 01:48:23;;;;;;;6.95;3.28;;;;;;;0.28;68.15;101157.47;5105145;28;20138;-77
2023/03/29 01:51:11;;;;;;;6.78;3.00;;;;;;;0.51;66.85;101147.00;5105360;28;20031;-77
2023/03/29 01:53:47;;;;;;;5.40;3.53;;;;;;;0.58;66.29;101145.06;5137450;27;20035;-77
2023/03/29 01:56:18;;;;;;;6.93;3.38;;;;;;;0.64;66.05;101150.97;5105059;28;20030;-76
2023/03/29 01:58:48;;;;;;;7.57;3.70;;;;;;;0.76;66.17;101170.78;5104136;28;20051;-76
2023/03/29 02:01:21;;;;;;;7.78;3.80;;;;;;;0.69;66.11;101170.16;5105726;28;20076;-77
2023/03/29 02:03:53;;;;;;;9.65;3.60;;;;;;;0.49;66.19;101153.25;5102589;28;20024;-76
2023/03/29 02:06:22;;;;;;;7.07;3.42;;;;;;;0.50;66.68;101176.09;5104107;28;20540;-77
2023/03/29 02:08:50;;;;;;;6.75;3.28;;;;;;;0.34;66.93;101166.94;5106035;27;20043;-77
2023/03/29 02:11:15;;;;;;;9.30;3.88;;;;;;;0.37;67.46;101180.03;5105793;28;20379;-77
2023/03/29 02:13:41;;;;;;;11.20;4.88;;;;;;;0.18;67.36;101153.41;5106369;28;20012;-76
2023/03/29 02:16:11;;;;;;;20.02;9.32;;;;;;;0.25;67.08;101170.75;5106304;28;20122;-76
2023/03/29 02:18:39;;;;;;;27.63;12.27;;;;;;;0.27;67.62;101179.50;5106016;28;20121;-76
2023/03/29 02:21:06;;;;;;;26.08;12.23;;;;;;;0.16;67.00;101167.56;5105155;28;20715;-77
2023/03/29 02:23:53;;;;;;;23.15;11.40;;;;;;;0.27;66.88;101197.97;5103560;28;20521;-72
2023/03/29 02:26:20;;;;;;;15.43;8.02;;;;;;;0.25;67.20;101191.84;5103735;28;20483;-76
2023/03/29 02:28:46;;;;;;;15.07;6.70;;;;;;;0.21;66.80;101192.00;5104050;28;20019;-78
2023/03/29 02:31:20;;;;;;;17.50;7.80;;;;;;;0.12;67.21;101176.50;5105119;28;20047;-77
2023/03/29 02:34:39;;;;;;;15.70;7.13;;;;;;;0.12;67.56;101179.97;5104275;28;20027;-76
2023/03/29 02:37:10;;;;;;;14.30;5.50;;;;;;;0.03;67.86;101167.06;5076370;28;20038;-77
2023/03/29 02:39:38;;;;;;;11.90;4.88;;;;;;;0.16;68.20;101189.50;5103063;28;20487;-76
2023/03/29 02:42:04;;;;;;;12.00;5.38;;;;;;;0.08;68.51;101180.13;5109210;28;20024;-77
2023/03/29 02:44:35;;;;;;;14.45;6.25;;;;;;;-0.01;69.01;101182.13;5108982;27;20449;-77
2023/03/29 02:47:14;;;;;;;12.70;6.80;;;;;;;0.03;68.96;101188.16;5109367;28;20027;-77
2023/03/29 02:49:40;;;;;;;15.52;7.38;;;;;;;-0.09;69.14;101173.59;5108118;28;20027;-77
2023/03/29 02:52:13;;;;;;;13.30;6.53;;;;;;;-0.03;69.48;101196.28;5107701;28;20076;-76
2023/03/29 02:54:42;;;;;;;12.45;5.85;;;;;;;-0.06;69.81;101196.38;5107894;28;20043;-77
2023/03/29 02:57:09;;;;;;;13.82;5.80;;;;;;;-0.20;69.96;101172.19;5108914;28;20035;-77
2023/03/29 02:59:35;;;;;;;13.68;6.75;;;;;;;-0.17;69.81;101183.53;5107873;28;20489;-77
2023/03/29 03:02:02;;;;;;;20.00;8.32;;;;;;;-0.08;69.90;101204.34;5109172;28;20038;-77
2023/03/29 03:04:28;;;;;;;19.80;8.85;;;;;;;-0.20;69.79;101190.66;5107345;28;20034;-77
2023/03/29 03:06:53;;;;;;;25.17;10.63;;;;;;;-0.14;69.99;101207.16;5108287;28;20042;-77
2023/03/29 03:09:19;;;;;;;23.40;10.60;;;;;;;-0.20;69.73;101211.72;5107125;28;20050;-77
2023/03/29 03:11:45;;;;;;;23.58;11.05;;;;;;;-0.20;69.54;101211.72;5108272;28;20019;-77
2023/03/29 03:14:11;;;;;;;25.92;12.70;;;;;;;-0.13;69.43;101227.31;5106581;28;20034;-77
2023/03/29 03:16:37;;;;;;;24.65;12.35;;;;;;;-0.34;69.79;101204.25;5107110;28;20038;-77
2023/03/29 03:19:03;;;;;;;19.27;9.65;;;;;;;-0.28;70.09;101206.72;5108126;28;20088;-77
2023/03/29 03:21:28;;;;;;;18.15;9.02;;;;;;;-0.52;70.27;101178.44;5107955;28;20467;-77
2023/03/29 03:23:54;;;;;;;14.93;7.95;;;;;;;-0.41;69.93;101213.25;5107965;28;20103;-78
2023/03/29 03:26:21;;;;;;;17.00;8.63;;;;;;;-0.37;69.13;101235.97;5107872;28;20023;-77
2023/03/29 03:28:47;;;;;;;19.48;8.85;;;;;;;-0.74;69.31;101179.94;5106615;28;20031;-78
2023/03/29 03:31:12;;;;;;;16.75;8.43;;;;;;;-0.65;69.58;101216.56;5107277;28;20364;-79
2023/03/29 03:33:39;;;;;;;18.13;8.93;;;;;;;-0.59;69.43;101242.75;5108425;28;20035;-78
2023/03/29 03:36:07;;;;;;;9.98;5.68;;;;;;;-0.59;69.96;101241.88;5105582;28;20416;-77
2023/03/29 03:38:33;;;;;;;7.63;4.25;;;;;;;-0.42;70.64;101252.81;5107576;28;20023;-78
2023/03/29 03:41:00;;;;;;;7.30;4.05;;;;;;;-0.38;70.06;101251.81;5107567;28;20027;-77
2023/03/29 03:43:26;;;;;;;8.70;3.78;;;;;;;-0.41;69.97;101230.81;5107943;28;20062;-77
2023/03/29 03:45:52;;;;;;;5.63;3.47;;;;;;;-0.40;69.79;101251.00;5108164;27;20028;-79
2023/03/29 03:48:18;;;;;;;8.18;3.63;;;;;;;-0.44;70.89;101254.63;5107443;28;20164;-79
2023/03/29 03:50:55;;;;;;;7.97;3.05;;;;;;;-0.88;70.72;101191.78;5105500;28;20036;-79
2023/03/29 03:53:22;;;;;;;5.80;3.35;;;;;;;-0.57;70.63;101258.50;5107774;28;20441;-80
2023/03/29 03:55:48;;;;;;;5.00;3.08;;;;;;;-0.66;71.09;101243.81;5107011;28;20530;-80
2023/03/29 03:58:14;;;;;;;6.32;3.28;;;;;;;-0.64;71.28;101256.94;5104115;28;20479;-80
2023/03/29 04:00:40;;;;;;;8.65;4.50;;;;;;;-0.95;71.59;101209.50;5107725;28;20482;-80
2023/03/29 04:03:06;;;;;;;7.22;4.50;;;;;;;-0.83;72.16;101238.16;5107858;28;20020;-80
2023/03/29 04:05:31;;;;;;;9.48;4.82;;;;;;;-0.93;71.69;101225.28;5106038;28;20054;-80
2023/03/29 04:07:57;;;;;;;6.68;4.18;;;;;;;-0.92;71.55;101248.94;5107520;28;20061;-80
2023/03/29 04:10:22;;;;;;;8.20;3.85;;;;;;;-1.03;71.09;101239.59;5107097;28;20011;-80
2023/03/29 04:12:48;;;;;;;6.72;4.25;;;;;;;-1.03;71.36;101253.59;5107161;28;20240;-80
2023/03/29 04:15:13;;;;;;;7.18;4.30;;;;;;;-1.03;71.92;101261.47;5106660;28;20034;-80
2023/03/29 04:17:39;;;;;;;12.25;4.95;;;;;;;-1.16;71.92;101244.28;5106497;28;20027;-80
2023/03/29 04:20:11;;;;;;;11.02;5.35;;;;;;;-1.16;72.13;101251.34;5105526;28;20016;-80
2023/03/29 04:22:38;;;;;;;7.88;4.03;;;;;;;-1.17;72.44;101255.72;5106748;28;20387;-81
2023/03/29 04:25:05;;;;;;;16.33;4.90;;;;;;;-1.13;73.21;101262.63;5107431;27;20028;-80
2023/03/29 04:27:31;;;;;;;6.82;3.50;;;;;;;-1.09;73.49;101252.91;5107015;28;20070;-80
2023/03/29 04:29:57;;;;;;;9.00;3.78;;;;;;;-1.03;73.52;101255.38;5106297;28;20028;-81
2023/03/29 04:32:22;;;;;;;8.52;4.38;;;;;;;-1.16;73.61;101227.66;5104805;28;20050;-81
2023/03/29 04:34:48;;;;;;;5.63;3.40;;;;;;;-1.18;73.67;101226.81;5105929;28;20145;-79
2023/03/29 04:37:15;;;;;;;7.32;3.70;;;;;;;-0.98;73.56;101261.38;5106585;28;20085;-80
2023/03/29 04:39:41;;;;;;;6.22;3.35;;;;;;;-1.02;73.34;101243.94;5105287;28;20024;-73
2023/03/29 04:42:07;;;;;;;5.82;3.78;;;;;;;-1.06;73.54;101253.66;5105991;28;20110;-73
2023/03/29 04:44:33;;;;;;;13.00;4.70;;;;;;;-1.06;73.74;101250.19;5106595;28;20102;-72
2023/03/29 04:47:00;;;;;;;11.85;4.82;;;;;;;-0.97;73.84;101268.38;5104513;28;20033;-72
2023/03/29 04:49:25;;;;;;;10.18;4.18;;;;;;;-1.07;74.11;101244.06;5105164;28;20106;-73
2023/03/29 04:51:52;;;;;;;9.00;4.93;;;;;;;-0.91;73.64;101265.56;5106545;28;20110;-73
2023/03/29 04:54:17;;;;;;;7.28;4.38;;;;;;;-0.98;73.94;101242.94;5105092;28;20114;-73
2023/03/29 04:56:43;;;;;;;5.85;4.13;;;;;;;-0.84;74.07;101268.00;5107062;28;20126;-73
2023/03/29 04:59:08;;;;;;;6.47;3.70;;;;;;;-0.80;73.91;101261.75;5106755;28;20076;-73
2023/03/29 05:01:34;;;;;;;6.68;3.65;;;;;;;-0.69;74.17;101275.50;5106416;28;20027;-73
2023/03/29 05:03:59;;;;;;;10.95;4.80;;;;;;;-0.62;74.70;101281.47;5103609;28;20578;-73
2023/03/29 05:06:25;;;;;;;7.75;3.67;;;;;;;-0.53;74.68;101287.38;5104747;28;20039;-73
2023/03/29 05:08:51;;;;;;;8.50;4.32;;;;;;;-0.48;74.25;101280.19;5104815;28;20061;-74
2023/03/29 05:11:18;;;;;;;9.15;4.95;;;;;;;-0.40;74.46;101294.03;5106453;28;20467;-74
2023/03/29 05:13:43;;;;;;;12.10;5.60;;;;;;;-0.34;74.31;101285.06;5105039;28;20518;-74
2023/03/29 05:16:09;;;;;;;9.15;5.10;;;;;;;-0.26;73.89;101288.34;5106366;28;20024;-74
2023/03/29 05:18:35;;;;;;;10.52;5.22;;;;;;;-0.22;73.53;101277.66;5106316;28;20080;-78
2023/03/29 05:21:02;;;;;;;9.30;4.50;;;;;;;0.06;71.55;101285.63;5106532;28;20035;-78
2023/03/29 05:23:28;;;;;;;9.95;5.25;;;;;;;0.17;70.07;101270.38;5104711;28;20444;-78
2023/03/29 05:25:53;;;;;;;8.63;4.72;;;;;;;0.24;69.52;101277.19;5104852;28;20076;-79
2023/03/29 05:28:19;;;;;;;7.40;4.88;;;;;;;0.37;69.10;101291.72;5104822;28;20043;-79
2023/03/29 05:30:45;;;;;;;7.43;4.68;;;;;;;0.33;69.21;101287.47;5106850;27;20030;-78
2023/03/29 05:33:11;;;;;;;8.68;4.28;;;;;;;0.53;68.88;101297.38;5106218;28;20471;-78
2023/03/29 05:35:36;;;;;;;11.73;4.90;;;;;;;0.46;68.34;101267.69;5106543;28;20047;-79
2023/03/29 05:38:03;;;;;;;11.05;4.43;;;;;;;0.57;68.01;101285.81;5098441;28;20034;-78
2023/03/29 05:40:31;;;;;;;11.13;4.50;;;;;;;0.55;68.03;101282.38;5106267;28;20054;-78
2023/03/29 05:42:58;;;;;;;7.20;4.40;;;;;;;0.57;67.86;101285.81;5106071;28;20026;-79
2023/03/29 05:45:23;;;;;;;6.88;4.47;;;;;;;0.58;67.42;101277.00;5104913;28;20027;-78
2023/03/29 05:47:49;;;;;;;11.77;5.13;;;;;;;0.72;68.19;101307.31;5106075;28;20711;-79
2023/03/29 05:50:16;;;;;;;7.65;4.45;;;;;;;0.91;66.96;101303.19;5105426;28;20051;-79
2023/03/29 05:52:42;;;;;;;13.50;4.68;;;;;;;0.98;66.89;101303.81;5105386;28;20483;-79
2023/03/29 05:55:09;;;;;;;8.63;4.35;;;;;;;0.99;67.08;101294.97;5107270;28;20027;-79
2023/03/29 05:57:36;;;;;;;10.63;4.68;;;;;;;1.14;65.48;101275.97;5105566;28;20114;-79
2023/03/29 06:00:04;;;;;;;14.05;5.55;;;;;;;1.43;64.85;101305.78;5105135;28;20135;-76
2023/03/29 06:02:30;;;;;;;10.68;5.80;;;;;;;1.45;64.16;101284.59;5103228;28;20026;-78
2023/03/29 06:04:56;;;;;;;8.68;5.30;;;;;;;1.58;64.39;101302.59;5106572;28;20028;-78
2023/03/29 06:07:23;;;;;;;9.20;5.18;;;;;;;1.70;64.28;101304.78;5105141;28;20035;-80
2023/03/29 06:09:48;;;;;;;11.65;5.75;;;;;;;1.78;63.56;101294.78;5107291;28;20621;-78
2023/03/29 06:12:14;;;;;;;10.32;5.60;;;;;;;2.19;61.75;101302.06;5106207;28;20067;-79
2023/03/29 06:14:39;;;;;;;11.90;6.55;;;;;;;1.97;62.75;101279.97;5105902;28;20028;-78
2023/03/29 06:17:05;;;;;;;10.77;6.07;;;;;;;2.05;63.69;101292.91;5107034;28;20036;-81
2023/03/29 06:19:30;;;;;;;9.32;5.38;;;;;;;2.23;63.85;101306.31;5104393;28;20048;-76
2023/03/29 06:21:56;;;;;;;12.27;6.15;;;;;;;2.46;62.16;101301.91;5105575;28;20031;-82
2023/03/29 06:24:21;;;;;;;12.18;6.63;;;;;;;2.57;62.43;101295.28;5107036;28;20037;-81
2023/03/29 06:26:47;;;;;;;10.63;6.68;;;;;;;2.93;61.97;101311.50;5105318;28;20059;-82
2023/03/29 06:29:12;;;;;;;12.63;7.07;;;;;;;2.91;59.93;101252.41;5104376;28;20023;-83
2023/03/29 06:31:38;;;;;;;14.32;6.15;;;;;;;3.37;58.90;101291.91;5106452;28;20088;-82
2023/03/29 06:34:04;;;;;;;11.77;6.88;;;;;;;3.66;57.77;101308.31;5106447;28;20051;-82
2023/03/29 06:36:32;;;;;;;14.30;6.53;;;;;;;3.75;57.85;101317.66;5106356;28;20016;-83
2023/03/29 06:38:58;;;;;;;12.70;6.72;;;;;;;3.71;58.40;101318.72;5106374;28;20118;-83
2023/03/29 06:41:25;;;;;;;10.23;6.50;;;;;;;3.44;59.09;101272.16;5106298;28;20079;-82
2023/03/29 06:43:51;;;;;;;13.93;6.43;;;;;;;3.70;58.97;101296.63;5107690;28;20027;-83
2023/03/29 06:46:16;;;;;;;9.88;5.75;;;;;;;4.20;55.24;101327.03;5106628;28;20047;-84
2023/03/29 06:48:41;;;;;;;10.20;4.95;;;;;;;4.06;55.88;101304.72;5107078;28;20406;-83
2023/03/29 06:51:07;;;;;;;9.90;4.68;;;;;;;4.42;52.95;101318.97;5107102;28;20073;-83
2023/03/29 06:53:34;;;;;;;10.73;4.78;;;;;;;4.77;51.64;101328.78;5106954;28;20031;-83
2023/03/29 06:56:04;;;;;;;20.05;5.75;;;;;;;4.83;51.34;101335.63;5107003;28;20081;-84
2023/03/29 06:58:29;;;;;;;10.57;5.25;;;;;;;4.83;51.78;101327.66;5107387;28;20688;-83
2023/03/29 07:01:00;;;;;;;9.38;5.07;;;;;;;5.04;50.88;101332.78;5107523;28;20015;-83
2023/03/29 07:03:26;;;;;;;5.65;3.85;;;;;;;5.13;49.19;101296.88;5106252;28;20024;-83
2023/03/29 07:06:00;;;;;;;6.68;3.97;;;;;;;5.33;48.35;101304.72;5107336;28;20031;-83
2023/03/29 07:08:29;;;;;;;4.95;3.05;;;;;;;5.60;46.93;101319.25;5105966;28;20023;-84
2023/03/29 07:10:57;;;;;;;5.63;2.92;;;;;;;5.78;47.07;101313.88;5104806;28;20028;-84
2023/03/29 07:13:25;;;;;;;8.32;3.58;;;;;;;5.79;46.80;101310.25;5106342;28;20539;-82
2023/03/29 07:15:51;;;;;;;6.53;3.83;;;;;;;5.96;46.54;101322.69;5103027;28;20023;-82
2023/03/29 07:18:17;;;;;;;6.57;3.30;;;;;;;6.16;44.86;101319.84;5102097;28;20113;-84
2023/03/29 07:20:43;;;;;;;6.45;2.60;;;;;;;6.02;43.22;101275.31;5103842;28;20479;-83
2023/03/29 07:23:10;;;;;;;5.78;2.33;;;;;;;6.26;42.54;101326.41;5103308;28;20032;-84
2023/03/29 07:25:36;;;;;;;3.65;1.90;;;;;;;6.06;42.54;101303.50;5105870;28;20024;-83
2023/03/29 07:28:02;;;;;;;4.63;2.40;;;;;;;6.06;43.57;101314.13;5111517;28;20031;-83
2023/03/29 07:30:31;;;;;;;4.90;2.67;;;;;;;6.28;41.01;101319.16;5113450;28;20028;-84
2023/03/29 07:32:57;;;;;;;4.93;2.10;;;;;;;6.44;40.73;101312.06;5111317;28;20114;-83
2023/03/29 07:35:24;;;;;;;6.20;2.20;;;;;;;6.59;40.58;101324.56;5112315;28;20023;-84
2023/03/29 07:37:50;;;;;;;4.57;1.98;;;;;;;6.54;41.75;101305.28;5111748;28;20069;-84
2023/03/29 07:40:18;;;;;;;3.33;1.60;;;;;;;6.92;39.10;101318.19;5110836;27;20122;-83
2023/03/29 07:42:51;;;;;;;3.95;2.00;;;;;;;7.26;38.36;101330.44;5109233;28;20093;-84
2023/03/29 07:45:19;;;;;;;2.63;1.70;;;;;;;7.20;39.09;101337.94;5110841;28;20728;-84
2023/03/29 07:47:46;;;;;;;4.03;2.00;;;;;;;7.06;39.39;101309.38;5110490;28;20118;-84
2023/03/29 07:50:13;;;;;;;6.13;3.03;;;;;;;7.33;38.33;101313.13;5110261;28;20020;-84
2023/03/29 07:52:39;;;;;;;4.45;2.80;;;;;;;7.40;38.32;101332.28;5110618;28;20016;-84
2023/03/29 07:55:09;;;;;;;6.20;2.53;;;;;;;7.48;37.52;101304.19;5110009;28;20098;-83
2023/03/29 07:57:35;;;;;;;6.18;2.90;;;;;;;7.54;37.37;101329.69;5109811;28;20040;-84
2023/03/29 08:00:09;;;;;;;5.90;2.67;;;;;;;7.51;36.99;101325.38;5110796;28;20556;-84
2023/03/29 08:02:35;;;;;;;4.28;2.13;;;;;;;7.63;37.07;101335.34;5108825;28;20007;-83
2023/03/29 08:05:00;;;;;;;3.75;2.35;;;;;;;7.89;37.53;101339.09;5109286;28;20034;-82
2023/03/29 08:07:26;;;;;;;4.75;2.78;;;;;;;7.84;37.23;101331.34;5109519;28;20035;-83
2023/03/29 08:09:51;;;;;;;8.55;2.78;;;;;;;7.76;37.88;101338.13;5110650;28;20467;-83
2023/03/29 08:12:17;;;;;;;7.82;3.55;;;;;;;7.80;36.86;101334.34;5108849;28;20043;-82
2023/03/29 08:14:42;;;;;;;6.97;3.47;;;;;;;8.40;34.53;101336.81;5109248;28;20091;-81
2023/03/29 08:17:07;;;;;;;6.15;2.95;;;;;;;8.67;34.39;101335.03;5109543;28;20020;-81
2023/03/29 08:19:33;;;;;;;6.28;3.63;;;;;;;9.22;33.08;101337.66;5109878;28;20410;-81
2023/03/29 08:21:59;;;;;;;6.50;2.97;;;;;;;9.53;33.18;101331.97;5109800;28;20529;-81
2023/03/29 08:24:25;;;;;;;6.45;2.90;;;;;;;9.89;32.60;101308.03;5107574;28;20019;-81
2023/03/29 08:26:51;;;;;;;4.70;2.42;;;;;;;10.37;32.32;101327.91;5107736;28;20031;-81
2023/03/29 08:29:16;;;;;;;4.78;2.80;;;;;;;10.31;32.68;101310.44;5109232;28;20109;-82
2023/03/29 08:31:42;;;;;;;4.68;2.67;;;;;;;10.69;32.30;101299.63;5109591;28;20024;-81
2023/03/29 08:34:07;;;;;;;5.68;2.50;;;;;;;11.22;31.21;101304.56;5109616;28;20099;-82
2023/03/29 08:36:33;;;;;;;4.60;2.42;;;;;;;11.25;31.95;101320.44;5108631;28;20152;-83
2023/03/29 08:38:58;;;;;;;4.55;2.90;;;;;;;11.53;31.86;101318.28;5107276;28;20024;-82
2023/03/29 08:41:39;;;;;;;3.38;2.17;;;;;;;11.83;32.18;101327.69;5108975;28;20084;-82
2023/03/29 08:44:08;;;;;;;4.32;2.17;;;;;;;12.25;30.92;101329.72;5105397;28;20113;-82
2023/03/29 08:46:49;;;;;;;6.05;2.35;;;;;;;12.46;30.21;101311.88;5107740;28;20039;-83
2023/03/29 08:49:15;;;;;;;4.00;2.20;;;;;;;12.86;29.43;101315.75;5105276;28;20101;-83
2023/03/29 08:51:54;;;;;;;5.10;2.22;;;;;;;13.05;29.40;101318.69;5108965;28;20486;-82
2023/03/29 08:54:25;;;;;;;2.72;1.80;;;;;;;12.88;29.51;101316.47;5108732;28;20532;-82
2023/03/29 08:56:56;;;;;;;4.82;2.00;;;;;;;12.99;28.69;101305.72;5108435;28;20506;-81
2023/03/29 08:59:28;;;;;;;3.85;2.00;;;;;;;12.97;28.75;101310.34;5108702;28;20547;-81
2023/03/29 09:01:56;;;;;;;4.35;2.35;;;;;;;12.69;29.50;101292.03;5108099;28;20030;-81
2023/03/29 09:04:26;;;;;;;2.40;1.77;;;;;;;12.66;30.14;101300.34;5105822;28;20136;-81
2023/03/29 09:06:52;;;;;;;3.60;2.05;;;;;;;12.48;29.48;101275.78;5108037;28;20106;-81
2023/03/29 09:09:21;;;;;;;3.13;1.98;;;;;;;13.17;27.27;101283.53;5106488;28;20027;-81
2023/03/29 09:12:16;;;;;;;2.78;1.95;;;;;;;13.20;27.59;101290.47;5106420;28;20028;-79
2023/03/29 09:14:41;;;;;;;;;;;;;;;13.55;26.95;101293.78;5104819;28;20035;-79
2023/03/29 09:17:12;;;;;;;5.78;2.67;;;;;;;13.98;27.11;101275.63;5108494;28;19912;-80
2023/03/29 09:20:20;;;;;;;5.65;2.38;;;;;;;14.39;27.33;101264.78;5108203;28;20111;-80
2023/03/29 09:23:06;;;;;;;3.13;2.00;;;;;;;15.98;25.00;101270.63;5067417;28;20501;-80
2023/03/29 09:25:57;;;;;;;5.53;2.40;;;;;;;16.83;24.32;101265.91;5105794;28;20070;-81
2023/03/29 09:28:37;;;;;;;4.03;2.35;;;;;;;17.65;23.06;101262.88;5106388;28;20425;-81
2023/03/29 09:31:11;;;;;;;2.25;2.03;;;;;;;17.78;22.06;101265.16;5106910;28;20047;-81
2023/03/29 09:34:03;;;;;;;5.05;2.20;;;;;;;17.30;23.13;101256.56;5109132;28;20080;-80
2023/03/29 09:36:36;;;;;;;2.35;1.95;;;;;;;17.92;21.35;101268.16;5109720;28;20096;-80
2023/03/29 09:39:03;;;;;;;2.45;1.70;;;;;;;18.47;20.88;101257.84;5109721;28;20035;-79
2023/03/29 09:41:31;;;;;;;3.45;1.50;;;;;;;18.82;20.76;101248.63;5107970;28;20566;-80
2023/03/29 09:44:01;;;;;;;3.42;1.77;;;;;;;19.47;20.62;101243.19;5108271;28;20035;-80
2023/03/29 09:46:40;;;;;;;4.78;2.53;;;;;;;20.26;19.98;101248.75;5107991;28;20097;-80
2023/03/29 09:49:11;;;;;;;6.38;1.70;;;;;;;21.15;19.02;101235.59;5106432;28;20096;-80
2023/03/29 09:51:39;;;;;;;4.32;2.03;;;;;;;20.80;19.28;101236.09;5109525;28;20015;-80
2023/03/29 09:54:04;;;;;;;4.35;1.92;;;;;;;20.21;20.12;101228.50;5108255;28;20039;-79
2023/03/29 09:56:30;;;;;;;4.30;2.20;;;;;;;19.71;20.06;101205.09;5109098;28;20081;-80
2023/03/29 09:58:56;;;;;;;4.95;1.95;;;;;;;19.29;20.68;101220.75;5109281;28;20028;-80
2023/03/29 10:01:21;;;;;;;3.58;2.08;;;;;;;18.34;21.79;101241.09;5107874;28;20027;-79
2023/03/29 10:03:50;;;;;;;4.13;1.98;;;;;;;17.06;22.29;101245.50;5109032;28;20028;-79
2023/03/29 10:06:17;;;;;;;3.13;1.60;;;;;;;16.53;23.15;101239.97;5108733;28;20126;-79
2023/03/29 10:08:56;;;;;;;4.47;1.80;;;;;;;15.85;24.15;101238.50;5108038;28;20430;-78
2023/03/29 10:11:35;;;;;;;3.55;1.85;;;;;;;15.13;25.50;101212.91;5107168;28;20114;-78
2023/03/29 10:14:13;;;;;;;3.53;2.00;;;;;;;14.83;25.54;101223.81;5107875;28;20032;-78
2023/03/29 10:16:40;;;;;;;4.30;2.22;;;;;;;15.08;25.52;101204.38;5108464;28;20118;-78
2023/03/29 10:19:33;;;;;;;4.38;2.10;;;;;;;14.80;25.48;101217.88;5106215;28;20035;-77
2023/03/29 10:22:01;;;;;;;3.67;2.35;;;;;;;14.27;25.86;101211.03;5106856;28;20402;-77
2023/03/29 10:24:27;;;;;;;3.33;2.28;;;;;;;13.38;27.15;101195.47;5108827;28;20068;-77
2023/03/29 10:27:01;;;;;;;3.72;2.22;;;;;;;12.79;28.12;101233.78;5107853;28;20081;-78
2023/03/29 10:29:35;;;;;;;4.22;2.60;;;;;;;12.61;29.57;101224.53;5107278;28;20036;-77
2023/03/29 10:32:00;;;;;;;3.78;2.10;;;;;;;12.33;29.24;101203.53;5106398;28;20525;-78
2023/03/29 10:34:26;;;;;;;5.05;2.67;;;;;;;12.51;29.70;101207.44;5108096;28;20031;-77
2023/03/29 10:36:59;;;;;;;4.82;2.10;;;;;;;12.34;29.25;101211.47;5107822;28;20085;-76
2023/03/29 10:39:32;;;;;;;3.80;2.35;;;;;;;12.35;29.37;101194.34;5107928;28;20034;-72
2023/03/29 10:41:59;;;;;;;7.40;2.60;;;;;;;12.28;29.54;101211.13;5105312;28;20362;-72
2023/03/29 10:44:29;;;;;;;10.20;2.42;;;;;;;11.96;30.49;101199.41;5105895;28;20027;-72
2023/03/29 10:46:54;;;;;;;3.67;2.10;;;;;;;12.07;30.62;101197.56;5105815;28;20062;-72
2023/03/29 10:49:22;;;;;;;4.65;2.58;;;;;;;11.92;30.34;101192.53;5103938;28;20079;-72
2023/03/29 10:51:49;;;;;;;2.92;2.10;;;;;;;11.66;31.28;101180.31;5104148;28;20028;-72
2023/03/29 10:54:19;;;;;;;4.40;2.55;;;;;;;11.58;31.51;101160.25;5105313;28;20111;-72
2023/03/29 10:56:54;;;;;;;6.32;2.50;;;;;;;11.53;32.18;101173.19;5104147;28;20031;-72
2023/03/29 10:59:31;;;;;;;3.58;2.35;;;;;;;11.74;31.17;101184.13;5101896;28;20036;-72
2023/03/29 11:02:15;;;;;;;3.05;2.13;;;;;;;12.08;30.79;101187.66;5107458;28;20359;-71
2023/03/29 11:05:04;;;;;;;4.75;2.70;;;;;;;11.70;31.25;101185.31;5108681;28;20027;-72
2023/03/29 11:07:36;;;;;;;4.15;2.42;;;;;;;11.76;31.75;101178.59;5107679;28;20036;-71
2023/03/29 11:10:14;;;;;;;4.15;2.00;;;;;;;11.93;31.65;101178.16;5107643;28;20031;-73
2023/03/29 11:12:52;;;;;;;3.08;2.22;;;;;;;11.87;31.76;101155.31;5107864;28;20024;-72
2023/03/29 11:15:21;;;;;;;3.47;2.30;;;;;;;11.82;31.37;101170.06;5107502;28;20367;-72
2023/03/29 11:17:59;;;;;;;4.68;2.10;;;;;;;11.75;31.87;101166.16;5109161;28;20491;-73
2023/03/29 11:20:47;;;;;;;2.78;2.10;;;;;;;11.93;31.99;101162.00;5107703;28;20386;-72
2023/03/29 11:23:34;;;;;;;4.72;2.40;;;;;;;11.79;31.72;101148.78;5108516;28;20027;-72
2023/03/29 11:26:30;;;;;;;3.05;1.98;;;;;;;11.70;31.68;101163.81;5108811;27;20024;-72
2023/03/29 11:29:06;;;;;;;2.60;2.13;;;;;;;11.98;30.51;101162.47;5108822;28;20035;-72
2023/03/29 11:32:19;;;;;;;3.63;1.90;;;;;;;11.72;31.23;101161.88;5107199;28;20068;-72
2023/03/29 11:35:25;;;;;;;5.93;1.95;;;;;;;11.57;32.04;101150.47;5061273;28;20156;-71
2023/03/29 11:38:22;;;;;;;6.18;2.40;;;;;;;11.43;32.54;101155.22;5107739;28;20027;-71
2023/03/29 11:40:59;;;;;;;2.92;1.88;;;;;;;11.59;32.04;101144.97;5106252;28;20034;-72